createdAt,value
2022-10-28T00:00:43.384Z,7.85
2022-10-28T00:05:48.542Z,8.30
2022-10-28T00:10:52.701Z,7.95
2022-10-28T00:15:56.188Z,8.23
2022-10-28T00:21:03.214Z,8.30
2022-10-28T00:26:08.673Z,8.02
2022-10-28T00:31:13.794Z,9.52
2022-10-28T00:36:20.969Z,7.93
2022-10-28T00:41:26.600Z,8.48
2022-10-28T00:46:33.515Z,8.77
2022-10-28T00:51:38.597Z,8.98
2022-10-28T00:56:47.732Z,9.10
2022-10-28T01:01:51.436Z,9.95
2022-10-28T01:06:57.212Z,9.77
2022-10-28T01:12:11.170Z,10.18
2022-10-28T01:17:31.339Z,10.38
2022-10-28T01:22:45.875Z,8.93
2022-10-28T01:28:14.068Z,9.77
2022-10-28T01:33:26.150Z,9.07
2022-10-28T01:38:37.141Z,9.23
2022-10-28T01:43:48.040Z,8.95
2022-10-28T01:48:57.784Z,10.75
2022-10-28T01:54:04.546Z,8.90
2022-10-28T01:59:13.595Z,9.48
2022-10-28T02:04:18.633Z,10.40
2022-10-28T02:09:34.031Z,9.57
2022-10-28T02:14:57.206Z,10.18
2022-10-28T02:20:08.705Z,9.63
2022-10-28T02:25:16.081Z,11.07
2022-10-28T02:30:22.808Z,8.57
2022-10-28T02:35:33.722Z,11.13
2022-10-28T02:40:40.264Z,10.50
2022-10-28T02:45:46.661Z,10.18
2022-10-28T02:50:58.938Z,9.50
2022-10-28T02:56:05.263Z,10.77
2022-10-28T03:01:08.979Z,10.75
2022-10-28T03:06:14.100Z,10.20
2022-10-28T03:11:19.348Z,10.25
2022-10-28T03:16:22.831Z,11.93
2022-10-28T03:21:27.719Z,8.93
2022-10-28T03:26:31.203Z,9.85
2022-10-28T03:31:34.832Z,10.10
2022-10-28T03:36:39.648Z,9.05
2022-10-28T03:41:43.105Z,9.45
2022-10-28T03:46:46.683Z,9.88
2022-10-28T03:51:51.445Z,9.48
2022-10-28T03:56:54.914Z,9.75
2022-10-28T04:01:58.421Z,8.65
2022-10-28T04:07:03.329Z,8.82
2022-10-28T04:12:07.936Z,8.60
2022-10-28T04:17:11.521Z,10.05
2022-10-28T04:22:16.444Z,9.52
2022-10-28T04:27:19.916Z,8.82
2022-10-28T04:32:23.412Z,8.52
2022-10-28T04:37:28.315Z,7.13
2022-10-28T04:42:31.738Z,7.70
2022-10-28T04:47:35.218Z,7.55
2022-10-28T04:52:40.029Z,6.78
2022-10-28T04:57:43.544Z,6.97
2022-10-28T05:02:46.991Z,7.70
2022-10-28T05:07:52.259Z,7.05
2022-10-28T05:12:55.842Z,7.07
2022-10-28T05:17:59.307Z,7.15
2022-10-28T05:23:04.177Z,6.88
2022-10-28T05:28:07.617Z,7.20
2022-10-28T05:33:11.606Z,7.35
2022-10-28T05:38:16.511Z,7.40
2022-10-28T05:43:19.967Z,7.55
2022-10-28T05:48:24.263Z,8.65
2022-10-28T05:53:29.070Z,9.63
2022-10-28T05:58:32.637Z,7.18
2022-10-28T06:03:36.147Z,7.32
2022-10-28T06:08:40.948Z,7.15
2022-10-28T06:13:42.868Z,6.80
2022-10-28T06:18:46.446Z,6.35
2022-10-28T06:23:51.548Z,6.32
2022-10-28T06:28:54.995Z,7.25
2022-10-28T06:33:58.689Z,7.38
2022-10-28T06:39:03.843Z,6.03
2022-10-28T06:44:07.462Z,6.50
2022-10-28T06:49:12.760Z,8.05
2022-10-28T06:54:17.659Z,6.45
2022-10-28T06:59:21.537Z,9.57
2022-10-28T07:04:25.097Z,7.40
2022-10-28T07:09:30.148Z,6.13
2022-10-28T07:14:34.899Z,6.63
2022-10-28T07:19:38.544Z,6.82
2022-10-28T07:24:43.644Z,7.30
2022-10-28T07:29:47.216Z,8.23
2022-10-28T07:34:50.914Z,6.97
2022-10-28T07:39:55.982Z,6.32
2022-10-28T07:44:59.518Z,6.22
2022-10-28T07:50:03.254Z,7.47
2022-10-28T07:55:09.378Z,7.35
2022-10-28T08:00:13.483Z,7.30
2022-10-28T08:05:17.360Z,6.82
2022-10-28T08:10:22.312Z,6.65
2022-10-28T08:15:26.332Z,6.47
2022-10-28T08:20:29.945Z,7.45
2022-10-28T08:25:34.951Z,7.15
2022-10-28T08:30:56.654Z,7.90
2022-10-28T08:36:02.015Z,6.80
2022-10-28T08:41:22.950Z,6.93
2022-10-28T08:46:38.793Z,6.65
2022-10-28T08:51:49.403Z,7.25
2022-10-28T08:56:56.249Z,6.88
2022-10-28T09:02:02.522Z,7.05
2022-10-28T09:07:07.723Z,6.75
2022-10-28T09:12:25.416Z,6.85
2022-10-28T09:17:39.097Z,7.63
2022-10-28T09:22:53.463Z,7.82
2022-10-28T09:28:15.402Z,7.47
2022-10-28T09:33:36.070Z,9.02
2022-10-28T09:38:40.525Z,8.02
2022-10-28T09:43:49.714Z,7.75
2022-10-28T09:48:56.811Z,8.27
2022-10-28T09:54:01.736Z,7.93
2022-10-28T09:59:07.539Z,7.10
2022-10-28T10:04:20.299Z,8.65
2022-10-28T10:09:27.344Z,7.32
2022-10-28T10:14:36.521Z,8.07
2022-10-28T10:20:04.815Z,7.50
2022-10-28T10:25:25.776Z,8.93
2022-10-28T10:30:34.826Z,7.38
2022-10-28T10:35:39.604Z,7.05
2022-10-28T10:40:50.653Z,7.57
2022-10-28T10:51:09.576Z,5.45
2022-10-28T10:56:15.721Z,5.35
2022-10-28T11:01:24.324Z,4.93
2022-10-28T11:06:31.511Z,5.63
2022-10-28T11:11:37.364Z,4.93
2022-10-28T11:16:54.091Z,5.10
2022-10-28T11:22:13.042Z,5.43
2022-10-28T11:27:24.097Z,4.85
2022-10-28T11:32:54.567Z,4.85
2022-10-28T11:38:20.851Z,5.30
2022-10-28T11:43:34.756Z,4.93
2022-10-28T11:48:54.662Z,5.20
2022-10-28T11:54:22.839Z,5.28
2022-10-28T11:59:57.437Z,4.65
2022-10-28T12:05:10.263Z,6.15
2022-10-28T12:10:42.946Z,4.95
2022-10-28T12:15:55.867Z,4.57
2022-10-28T12:21:08.546Z,4.95
2022-10-28T12:26:16.861Z,4.35
2022-10-28T12:31:25.482Z,4.70
2022-10-28T12:36:36.208Z,4.47
2022-10-28T12:41:57.374Z,4.35
2022-10-28T12:47:17.504Z,4.85
2022-10-28T12:52:32.042Z,4.70
2022-10-28T12:57:38.787Z,3.90
2022-10-28T13:02:47.619Z,4.07
2022-10-28T13:08:23.787Z,4.70
2022-10-28T13:13:45.138Z,3.47
2022-10-28T13:19:18.840Z,4.22
2022-10-28T13:24:30.211Z,4.38
2022-10-28T13:29:36.319Z,4.72
2022-10-28T13:34:41.413Z,5.03
2022-10-28T13:39:46.794Z,4.10
2022-10-28T13:44:53.479Z,4.20
2022-10-28T13:50:30.283Z,4.80
2022-10-28T13:55:45.040Z,4.10
2022-10-28T14:00:53.140Z,4.70
2022-10-28T14:06:00.609Z,4.68
2022-10-28T14:11:06.621Z,3.85
2022-10-28T14:16:26.011Z,4.15
2022-10-28T14:21:46.961Z,4.70
2022-10-28T14:27:30.639Z,4.57
2022-10-28T14:32:45.500Z,5.45
2022-10-28T14:38:24.979Z,4.97
2022-10-28T14:43:59.037Z,4.18
2022-10-28T14:49:14.650Z,4.40
2022-10-28T14:54:23.777Z,4.88
2022-10-28T14:59:37.353Z,4.57
2022-10-28T15:04:45.043Z,5.88
2022-10-28T15:09:53.565Z,4.47
2022-10-28T15:14:58.229Z,4.30
2022-10-28T15:20:16.532Z,5.05
2022-10-28T15:25:21.864Z,4.25
2022-10-28T15:30:27.382Z,5.63
2022-10-28T15:35:41.183Z,5.38
2022-10-28T15:40:44.886Z,5.25
2022-10-28T15:45:48.559Z,4.80
2022-10-28T15:51:15.223Z,4.45
2022-10-28T15:56:24.241Z,4.50
2022-10-28T16:01:31.619Z,4.95
2022-10-28T16:06:38.355Z,5.15
2022-10-28T16:11:43.978Z,4.75
2022-10-28T16:16:47.717Z,5.38
2022-10-28T16:21:52.974Z,5.45
2022-10-28T16:27:16.086Z,4.72
2022-10-28T16:32:25.141Z,4.78
2022-10-28T16:37:32.991Z,4.97
2022-10-28T16:42:38.029Z,4.55
2022-10-28T16:47:41.774Z,4.80
2022-10-28T16:52:46.712Z,4.15
2022-10-28T16:57:50.265Z,5.60
2022-10-28T17:02:54.241Z,4.28
2022-10-28T17:07:59.891Z,4.60
2022-10-28T17:13:04.156Z,4.90
2022-10-28T17:18:07.794Z,5.15
2022-10-28T17:23:12.657Z,4.97
2022-10-28T17:28:16.343Z,4.30
2022-10-28T17:33:20.083Z,5.97
2022-10-28T17:38:25.129Z,5.05
2022-10-28T17:43:29.046Z,4.80
2022-10-28T17:48:32.577Z,5.43
2022-10-28T17:53:37.678Z,4.35
2022-10-28T17:58:41.416Z,5.85
2022-10-28T18:03:44.875Z,11.32
2022-10-28T18:13:58.621Z,5.93
2022-10-28T18:19:05.078Z,5.35
2022-10-28T18:24:10.463Z,5.78
2022-10-28T18:29:14.210Z,6.75
2022-10-28T18:34:18.090Z,6.10
2022-10-28T18:39:23.068Z,5.35
2022-10-28T18:44:31.749Z,6.88
2022-10-28T18:49:35.391Z,6.50
2022-10-28T18:54:40.314Z,7.18
2022-10-28T19:00:12.552Z,6.72
2022-10-28T19:05:07.869Z,6.07
2022-10-28T19:10:12.971Z,7.03
2022-10-28T19:15:17.202Z,12.13
2022-10-28T19:20:20.951Z,10.05
2022-10-28T19:25:25.978Z,8.85
2022-10-28T19:30:29.739Z,10.15
2022-10-28T19:35:35.103Z,9.23
2022-10-28T19:40:39.972Z,8.43
2022-10-28T19:45:43.576Z,8.35
2022-10-28T19:50:50.313Z,7.88
2022-10-28T19:55:59.157Z,8.10
2022-10-28T20:01:04.745Z,8.30
2022-10-28T20:06:10.760Z,6.80
2022-10-28T20:11:20.108Z,7.07
2022-10-28T20:16:26.776Z,9.63
2022-10-28T20:21:33.355Z,9.95
2022-10-28T20:26:39.870Z,9.13
2022-10-28T20:31:43.489Z,7.97
2022-10-28T20:36:47.033Z,7.57
2022-10-28T20:41:52.231Z,8.15
2022-10-28T20:46:56.053Z,7.00
2022-10-28T20:52:00.976Z,6.68
2022-10-28T20:57:05.926Z,6.25
2022-10-28T21:02:10.583Z,5.80
2022-10-28T21:07:14.294Z,5.85
2022-10-28T21:12:19.159Z,6.20
2022-10-28T21:17:22.560Z,6.88
2022-10-28T21:22:26.990Z,4.80
2022-10-28T21:27:32.136Z,4.78
2022-10-28T21:32:37.228Z,5.05
2022-10-28T21:37:40.745Z,5.38
2022-10-28T21:42:49.813Z,4.93
2022-10-28T21:47:55.826Z,4.47
2022-10-28T21:53:03.964Z,4.45
2022-10-28T21:58:09.346Z,4.72
2022-10-28T22:03:13.874Z,4.82
2022-10-28T22:08:17.446Z,4.65
2022-10-28T22:13:22.249Z,5.35
2022-10-28T22:18:25.869Z,4.55
2022-10-28T22:23:29.314Z,4.03
2022-10-28T22:28:34.592Z,4.80
2022-10-28T22:33:38.615Z,5.18
2022-10-28T22:38:42.820Z,4.28
2022-10-28T22:43:51.048Z,3.80
2022-10-28T22:48:55.099Z,4.10
2022-10-28T22:53:58.665Z,6.05
2022-10-28T22:59:03.844Z,5.25
2022-10-28T23:04:11.588Z,5.15
2022-10-28T23:09:15.048Z,5.28
2022-10-28T23:14:19.803Z,6.07
2022-10-28T23:19:23.265Z,5.53
2022-10-28T23:24:26.754Z,4.63
2022-10-28T23:29:31.613Z,4.65
2022-10-28T23:34:35.053Z,4.70
2022-10-28T23:39:38.493Z,5.60
2022-10-28T23:44:43.396Z,3.53
2022-10-28T23:49:46.960Z,4.20
2022-10-28T23:54:50.439Z,4.70
2022-10-28T23:59:55.237Z,4.63
